sensor_id;sensor_type;location;lat;lon;timestamp;pressure;altitude;pressure_sealevel;temperature;humidity
35507;BME280;36461;52.018;21.036;2022-10-01T00:02:16;100118.57;;;10.78;87.92
35507;BME280;36461;52.018;21.036;2022-10-01T00:04:42;100127.66;;;10.78;87.98
35507;BME280;36461;52.018;21.036;2022-10-01T00:07:09;100122.47;;;10.78;87.94
35507;BME280;36461;52.018;21.036;2022-10-01T00:09:37;100130.72;;;10.78;88.00
35507;BME280;36461;52.018;21.036;2022-10-01T00:12:04;100130.78;;;10.76;88.06
35507;BME280;36461;52.018;21.036;2022-10-01T00:14:31;100130.38;;;10.75;88.13
35507;BME280;36461;52.018;21.036;2022-10-01T00:16:57;100123.39;;;10.77;88.32
35507;BME280;36461;52.018;21.036;2022-10-01T00:19:24;100129.77;;;10.80;88.26
35507;BME280;36461;52.018;21.036;2022-10-01T00:21:50;100133.13;;;10.82;88.34
35507;BME280;36461;52.018;21.036;2022-10-01T00:24:17;100132.70;;;10.83;88.22
35507;BME280;36461;52.018;21.036;2022-10-01T00:26:43;100135.36;;;10.81;88.17
35507;BME280;36461;52.018;21.036;2022-10-01T00:29:11;100137.95;;;10.81;88.23
35507;BME280;36461;52.018;21.036;2022-10-01T00:31:39;100133.25;;;10.79;88.21
35507;BME280;36461;52.018;21.036;2022-10-01T00:34:05;100142.87;;;10.77;88.23
35507;BME280;36461;52.018;21.036;2022-10-01T00:36:32;100154.55;;;10.77;88.24
35507;BME280;36461;52.018;21.036;2022-10-01T00:38:59;100158.05;;;10.76;88.32
35507;BME280;36461;52.018;21.036;2022-10-01T00:41:30;100153.28;;;10.75;88.29
35507;BME280;36461;52.018;21.036;2022-10-01T00:43:58;100167.19;;;10.74;88.27
35507;BME280;36461;52.018;21.036;2022-10-01T00:46:28;100151.27;;;10.72;88.38
35507;BME280;36461;52.018;21.036;2022-10-01T00:49:22;100159.83;;;10.74;88.50
35507;BME280;36461;52.018;21.036;2022-10-01T00:51:48;100153.28;;;10.75;88.54
35507;BME280;36461;52.018;21.036;2022-10-01T00:54:18;100153.69;;;10.77;88.52
35507;BME280;36461;52.018;21.036;2022-10-01T00:56:47;100142.47;;;10.76;88.56
35507;BME280;36461;52.018;21.036;2022-10-01T00:59:16;100143.83;;;10.74;88.55
35507;BME280;36461;52.018;21.036;2022-10-01T01:01:43;100141.59;;;10.75;88.61
35507;BME280;36461;52.018;21.036;2022-10-01T01:04:09;100132.98;;;10.75;88.65
35507;BME280;36461;52.018;21.036;2022-10-01T01:06:46;100132.58;;;10.74;88.71
35507;BME280;36461;52.018;21.036;2022-10-01T01:09:20;100137.70;;;10.75;88.69
35507;BME280;36461;52.018;21.036;2022-10-01T01:12:02;100142.06;;;10.75;88.71
35507;BME280;36461;52.018;21.036;2022-10-01T01:14:40;100135.23;;;10.72;88.66
35507;BME280;36461;52.018;21.036;2022-10-01T01:17:17;100132.63;;;10.72;88.71
35507;BME280;36461;52.018;21.036;2022-10-01T01:19:58;100134.83;;;10.71;88.71
35507;BME280;36461;52.018;21.036;2022-10-01T01:22:26;100139.19;;;10.71;88.75
35507;BME280;36461;52.018;21.036;2022-10-01T01:25:01;100139.59;;;10.72;88.79
35507;BME280;36461;52.018;21.036;2022-10-01T01:27:34;100127.50;;;10.71;88.83
35507;BME280;36461;52.018;21.036;2022-10-01T01:30:04;100128.80;;;10.71;88.81
35507;BME280;36461;52.018;21.036;2022-10-01T01:32:38;100134.83;;;10.71;88.87
35507;BME280;36461;52.018;21.036;2022-10-01T01:35:07;100138.78;;;10.70;88.84
35507;BME280;36461;52.018;21.036;2022-10-01T01:37:37;100137.48;;;10.70;88.87
35507;BME280;36461;52.018;21.036;2022-10-01T01:40:04;100141.38;;;10.70;88.98
35507;BME280;36461;52.018;21.036;2022-10-01T01:42:35;100147.44;;;10.70;88.96
35507;BME280;36461;52.018;21.036;2022-10-01T01:45:05;100157.82;;;10.70;89.05
35507;BME280;36461;52.018;21.036;2022-10-01T01:47:34;100149.57;;;10.71;89.01
35507;BME280;36461;52.018;21.036;2022-10-01T01:50:03;100152.63;;;10.70;89.07
35507;BME280;36461;52.018;21.036;2022-10-01T01:52:32;100153.00;;;10.71;89.09
35507;BME280;36461;52.018;21.036;2022-10-01T01:54:59;100155.59;;;10.71;89.05
35507;BME280;36461;52.018;21.036;2022-10-01T01:57:28;100154.77;;;10.71;89.10
35507;BME280;36461;52.018;21.036;2022-10-01T01:59:54;100151.77;;;10.70;89.07
35507;BME280;36461;52.018;21.036;2022-10-01T02:02:25;100146.17;;;10.69;89.07
35507;BME280;36461;52.018;21.036;2022-10-01T02:04:55;100158.25;;;10.70;89.08
35507;BME280;36461;52.018;21.036;2022-10-01T02:10:21;100150.31;;;10.74;89.40
35507;BME280;36461;52.018;21.036;2022-10-01T02:17:58;100155.20;;;10.82;89.41
35507;BME280;36461;52.018;21.036;2022-10-01T02:20:37;100157.86;;;10.81;89.14
35507;BME280;36461;52.018;21.036;2022-10-01T02:23:06;100154.89;;;10.80;89.31
35507;BME280;36461;52.018;21.036;2022-10-01T02:25:36;100152.79;;;10.78;89.05
35507;BME280;36461;52.018;21.036;2022-10-01T02:28:06;100139.99;;;10.73;89.09
35507;BME280;36461;52.018;21.036;2022-10-01T02:30:34;100132.41;;;10.67;89.00
35507;BME280;36461;52.018;21.036;2022-10-01T02:33:03;100127.96;;;10.58;89.15
35507;BME280;36461;52.018;21.036;2022-10-01T02:35:31;100122.42;;;10.56;89.28
35507;BME280;36461;52.018;21.036;2022-10-01T02:38:00;100124.19;;;10.55;89.54
35507;BME280;36461;52.018;21.036;2022-10-01T02:40:29;100116.34;;;10.57;89.67
35507;BME280;36461;52.018;21.036;2022-10-01T02:42:58;100118.41;;;10.59;89.74
35507;BME280;36461;52.018;21.036;2022-10-01T02:45:27;100123.95;;;10.62;89.83
35507;BME280;36461;52.018;21.036;2022-10-01T02:47:58;100126.95;;;10.63;89.79
35507;BME280;36461;52.018;21.036;2022-10-01T02:50:27;100126.95;;;10.63;89.88
35507;BME280;36461;52.018;21.036;2022-10-01T02:53:07;100135.16;;;10.62;90.00
35507;BME280;36461;52.018;21.036;2022-10-01T02:55:34;100147.19;;;10.65;90.05
35507;BME280;36461;52.018;21.036;2022-10-01T02:58:02;100151.08;;;10.65;89.95
35507;BME280;36461;52.018;21.036;2022-10-01T03:00:29;100144.22;;;10.64;89.96
35507;BME280;36461;52.018;21.036;2022-10-01T03:02:56;100146.35;;;10.64;89.97
35507;BME280;36461;52.018;21.036;2022-10-01T03:05:22;100140.33;;;10.64;89.98
35507;BME280;36461;52.018;21.036;2022-10-01T03:07:49;100132.08;;;10.64;89.96
35507;BME280;36461;52.018;21.036;2022-10-01T03:10:15;100126.88;;;10.64;89.98
35507;BME280;36461;52.018;21.036;2022-10-01T03:12:42;100127.34;;;10.64;89.88
35507;BME280;36461;52.018;21.036;2022-10-01T03:15:12;100118.75;;;10.62;89.89
35507;BME280;36461;52.018;21.036;2022-10-01T03:17:40;100119.65;;;10.61;89.92
35507;BME280;36461;52.018;21.036;2022-10-01T03:20:07;100109.33;;;10.59;89.89
35507;BME280;36461;52.018;21.036;2022-10-01T03:22:34;100101.11;;;10.60;90.01
35507;BME280;36461;52.018;21.036;2022-10-01T03:25:00;100097.22;;;10.60;89.91
35507;BME280;36461;52.018;21.036;2022-10-01T03:27:28;100091.22;;;10.57;89.78
35507;BME280;36461;52.018;21.036;2022-10-01T03:29:55;100089.24;;;10.52;89.57
35507;BME280;36461;52.018;21.036;2022-10-01T03:32:21;100088.84;;;10.51;89.75
35507;BME280;36461;52.018;21.036;2022-10-01T03:34:48;100084.64;;;10.49;89.80
35507;BME280;36461;52.018;21.036;2022-10-01T03:37:14;100090.78;;;10.46;89.73
35507;BME280;36461;52.018;21.036;2022-10-01T03:39:41;100091.80;;;10.42;89.64
35507;BME280;36461;52.018;21.036;2022-10-01T03:42:08;100091.39;;;10.41;89.68
35507;BME280;36461;52.018;21.036;2022-10-01T03:44:34;100100.63;;;10.36;89.64
35507;BME280;36461;52.018;21.036;2022-10-01T03:47:01;100099.47;;;10.32;89.61
35507;BME280;36461;52.018;21.036;2022-10-01T03:49:27;100100.92;;;10.27;89.58
35507;BME280;36461;52.018;21.036;2022-10-01T03:51:55;100096.74;;;10.23;89.75
35507;BME280;36461;52.018;21.036;2022-10-01T03:54:21;100104.98;;;10.22;89.76
35507;BME280;36461;52.018;21.036;2022-10-01T03:56:48;100110.66;;;10.20;89.86
35507;BME280;36461;52.018;21.036;2022-10-01T03:59:14;100113.66;;;10.21;90.04
35507;BME280;36461;52.018;21.036;2022-10-01T04:01:41;100113.66;;;10.21;90.08
35507;BME280;36461;52.018;21.036;2022-10-01T04:04:07;100117.41;;;10.26;90.39
35507;BME280;36461;52.018;21.036;2022-10-01T04:06:34;100113.34;;;10.31;90.41
35507;BME280;36461;52.018;21.036;2022-10-01T04:09:00;100118.41;;;10.34;90.37
35507;BME280;36461;52.018;21.036;2022-10-01T04:11:27;100118.79;;;10.36;90.33
35507;BME280;36461;52.018;21.036;2022-10-01T04:13:54;100116.19;;;10.36;90.18
35507;BME280;36461;52.018;21.036;2022-10-01T04:16:22;100126.98;;;10.37;90.18
35507;BME280;36461;52.018;21.036;2022-10-01T04:18:49;100129.16;;;10.36;90.09
35507;BME280;36461;52.018;21.036;2022-10-01T04:21:16;100121.02;;;10.35;90.20
35507;BME280;36461;52.018;21.036;2022-10-01T04:23:43;100119.25;;;10.36;90.35
35507;BME280;36461;52.018;21.036;2022-10-01T04:26:10;100120.95;;;10.37;90.29
35507;BME280;36461;52.018;21.036;2022-10-01T04:28:37;100115.77;;;10.37;90.30
35507;BME280;36461;52.018;21.036;2022-10-01T04:31:03;100116.59;;;10.37;90.30
35507;BME280;36461;52.018;21.036;2022-10-01T04:33:49;100119.13;;;10.39;90.33
35507;BME280;36461;52.018;21.036;2022-10-01T04:36:16;100114.34;;;10.40;90.28
35507;BME280;36461;52.018;21.036;2022-10-01T04:38:42;100113.05;;;10.40;90.38
35507;BME280;36461;52.018;21.036;2022-10-01T04:41:09;100113.86;;;10.42;90.43
35507;BME280;36461;52.018;21.036;2022-10-01T04:43:35;100121.11;;;10.44;90.47
35507;BME280;36461;52.018;21.036;2022-10-01T04:46:02;100116.73;;;10.46;90.40
35507;BME280;36461;52.018;21.036;2022-10-01T04:48:28;100109.38;;;10.46;90.34
35507;BME280;36461;52.018;21.036;2022-10-01T04:50:55;100109.78;;;10.47;90.41
35507;BME280;36461;52.018;21.036;2022-10-01T04:53:21;100116.67;;;10.48;90.34
35507;BME280;36461;52.018;21.036;2022-10-01T04:55:48;100113.61;;;10.48;90.30
35507;BME280;36461;52.018;21.036;2022-10-01T04:58:15;100111.08;;;10.47;90.23
35507;BME280;36461;52.018;21.036;2022-10-01T05:00:43;100104.13;;;10.47;90.34
35507;BME280;36461;52.018;21.036;2022-10-01T05:03:10;100100.58;;;10.50;90.46
35507;BME280;36461;52.018;21.036;2022-10-01T05:05:36;100106.17;;;10.51;90.45
35507;BME280;36461;52.018;21.036;2022-10-01T05:08:03;100103.52;;;10.52;90.43
35507;BME280;36461;52.018;21.036;2022-10-01T05:10:30;100109.58;;;10.53;90.38
35507;BME280;36461;52.018;21.036;2022-10-01T05:12:57;100103.52;;;10.52;90.36
35507;BME280;36461;52.018;21.036;2022-10-01T05:15:26;100110.34;;;10.55;90.49
35507;BME280;36461;52.018;21.036;2022-10-01T05:17:53;100111.52;;;10.58;90.55
35507;BME280;36461;52.018;21.036;2022-10-01T05:20:21;100119.71;;;10.59;90.48
35507;BME280;36461;52.018;21.036;2022-10-01T05:22:49;100119.65;;;10.61;90.44
35507;BME280;36461;52.018;21.036;2022-10-01T05:25:16;100122.65;;;10.62;90.44
35507;BME280;36461;52.018;21.036;2022-10-01T05:27:42;100124.34;;;10.63;90.37
35507;BME280;36461;52.018;21.036;2022-10-01T05:30:10;100122.09;;;10.65;90.41
35507;BME280;36461;52.018;21.036;2022-10-01T05:32:38;100117.61;;;10.69;90.47
35507;BME280;36461;52.018;21.036;2022-10-01T05:35:05;100116.62;;;10.73;90.56
35507;BME280;36461;52.018;21.036;2022-10-01T05:37:33;100119.94;;;10.77;90.52
35507;BME280;36461;52.018;21.036;2022-10-01T05:40:00;100116.38;;;10.79;90.51
35507;BME280;36461;52.018;21.036;2022-10-01T05:42:27;100116.66;;;10.83;90.50
35507;BME280;36461;52.018;21.036;2022-10-01T05:44:54;100120.39;;;10.88;90.51
35507;BME280;36461;52.018;21.036;2022-10-01T05:47:20;100116.77;;;10.92;90.49
35507;BME280;36461;52.018;21.036;2022-10-01T05:49:47;100116.19;;;10.96;90.53
35507;BME280;36461;52.018;21.036;2022-10-01T05:52:14;100121.98;;;11.02;90.47
35507;BME280;36461;52.018;21.036;2022-10-01T05:54:41;100117.47;;;11.07;90.51
35507;BME280;36461;52.018;21.036;2022-10-01T05:57:07;100116.44;;;11.12;90.42
35507;BME280;36461;52.018;21.036;2022-10-01T05:59:34;100115.08;;;11.13;90.21
35507;BME280;36461;52.018;21.036;2022-10-01T06:02:01;100109.85;;;11.15;90.22
35507;BME280;36461;52.018;21.036;2022-10-01T06:04:29;100115.75;;;11.18;90.15
35507;BME280;36461;52.018;21.036;2022-10-01T06:06:56;100113.48;;;11.21;90.15
35507;BME280;36461;52.018;21.036;2022-10-01T06:09:23;100114.23;;;11.24;90.24
35507;BME280;36461;52.018;21.036;2022-10-01T06:11:50;100119.19;;;11.31;90.26
35507;BME280;36461;52.018;21.036;2022-10-01T06:14:17;100115.66;;;11.32;90.04
35507;BME280;36461;52.018;21.036;2022-10-01T06:16:44;100116.89;;;11.33;89.96
35507;BME280;36461;52.018;21.036;2022-10-01T06:19:11;100118.20;;;11.33;89.89
35507;BME280;36461;52.018;21.036;2022-10-01T06:21:38;100117.63;;;11.37;89.97
35507;BME280;36461;52.018;21.036;2022-10-01T06:24:04;100114.90;;;11.40;89.96
35507;BME280;36461;52.018;21.036;2022-10-01T06:26:30;100110.37;;;11.45;90.06
35507;BME280;36461;52.018;21.036;2022-10-01T06:28:57;100108.44;;;11.50;90.05
35507;BME280;36461;52.018;21.036;2022-10-01T06:31:24;100106.89;;;11.56;90.06
35507;BME280;36461;52.018;21.036;2022-10-01T06:33:50;100108.33;;;11.64;90.01
35507;BME280;36461;52.018;21.036;2022-10-01T06:36:17;100103.78;;;11.69;89.96
35507;BME280;36461;52.018;21.036;2022-10-01T06:38:46;100101.70;;;11.77;89.89
35507;BME280;36461;52.018;21.036;2022-10-01T06:41:14;100098.80;;;11.85;89.82
35507;BME280;36461;52.018;21.036;2022-10-01T06:43:41;100095.02;;;11.92;89.82
35507;BME280;36461;52.018;21.036;2022-10-01T06:46:07;100095.81;;;12.04;89.84
35507;BME280;36461;52.018;21.036;2022-10-01T06:48:34;100097.05;;;12.16;89.52
35507;BME280;36461;52.018;21.036;2022-10-01T06:51:01;100097.55;;;12.24;89.22
35507;BME280;36461;52.018;21.036;2022-10-01T06:53:28;100099.75;;;12.34;89.07
35507;BME280;36461;52.018;21.036;2022-10-01T06:55:54;100104.12;;;12.44;89.05
35507;BME280;36461;52.018;21.036;2022-10-01T06:58:22;100099.02;;;12.51;88.79
35507;BME280;36461;52.018;21.036;2022-10-01T07:00:56;100100.81;;;12.59;88.43
35507;BME280;36461;52.018;21.036;2022-10-01T07:03:24;100091.80;;;12.66;88.45
35507;BME280;36461;52.018;21.036;2022-10-01T07:05:51;100094.77;;;12.78;88.34
35507;BME280;36461;52.018;21.036;2022-10-01T07:08:19;100093.55;;;12.85;87.88
35507;BME280;36461;52.018;21.036;2022-10-01T07:10:47;100095.30;;;12.95;87.79
35507;BME280;36461;52.018;21.036;2022-10-01T07:13:17;100098.47;;;13.10;87.73
35507;BME280;36461;52.018;21.036;2022-10-01T07:15:42;100098.03;;;13.19;87.32
35507;BME280;36461;52.018;21.036;2022-10-01T07:18:09;100098.82;;;13.30;87.21
35507;BME280;36461;52.018;21.036;2022-10-01T07:20:36;100099.87;;;13.45;86.99
35507;BME280;36461;52.018;21.036;2022-10-01T07:23:09;100099.11;;;13.52;86.00
35507;BME280;36461;52.018;21.036;2022-10-01T07:25:37;100107.78;;;13.61;85.65
35507;BME280;36461;52.018;21.036;2022-10-01T07:28:06;100102.28;;;13.67;85.62
35507;BME280;36461;52.018;21.036;2022-10-01T07:30:35;100101.87;;;13.75;84.98
35507;BME280;36461;52.018;21.036;2022-10-01T07:33:02;100097.66;;;13.81;84.88
35507;BME280;36461;52.018;21.036;2022-10-01T07:35:29;100095.84;;;13.83;84.51
35507;BME280;36461;52.018;21.036;2022-10-01T07:37:56;100097.20;;;13.90;84.35
35507;BME280;36461;52.018;21.036;2022-10-01T07:40:23;100097.13;;;13.92;84.06
35507;BME280;36461;52.018;21.036;2022-10-01T07:42:52;100094.42;;;13.93;83.83
35507;BME280;36461;52.018;21.036;2022-10-01T07:45:21;100095.43;;;14.00;83.47
35507;BME280;36461;52.018;21.036;2022-10-01T07:47:56;100090.57;;;14.09;83.56
35507;BME280;36461;52.018;21.036;2022-10-01T07:50:21;100090.19;;;14.17;82.72
35507;BME280;36461;52.018;21.036;2022-10-01T07:52:55;100091.87;;;14.18;82.69
35507;BME280;36461;52.018;21.036;2022-10-01T07:55:19;100087.01;;;14.28;82.74
35507;BME280;36461;52.018;21.036;2022-10-01T07:57:49;100088.88;;;14.42;83.05
35507;BME280;36461;52.018;21.036;2022-10-01T08:00:17;100083.09;;;14.53;82.66
35507;BME280;36461;52.018;21.036;2022-10-01T08:02:48;100095.06;;;14.66;82.23
35507;BME280;36461;52.018;21.036;2022-10-01T08:05:21;100092.64;;;14.79;82.10
35507;BME280;36461;52.018;21.036;2022-10-01T08:07:48;100089.17;;;14.94;81.90
35507;BME280;36461;52.018;21.036;2022-10-01T08:10:16;100097.91;;;15.02;81.17
35507;BME280;36461;52.018;21.036;2022-10-01T08:12:44;100097.94;;;14.93;80.32
35507;BME280;36461;52.018;21.036;2022-10-01T08:15:13;100092.38;;;14.83;80.12
35507;BME280;36461;52.018;21.036;2022-10-01T08:17:41;100093.38;;;14.65;79.55
35507;BME280;36461;52.018;21.036;2022-10-01T08:20:09;100092.59;;;14.63;79.95
35507;BME280;36461;52.018;21.036;2022-10-01T08:22:38;100092.14;;;14.72;79.85
35507;BME280;36461;52.018;21.036;2022-10-01T08:25:05;100088.44;;;14.92;79.72
35507;BME280;36461;52.018;21.036;2022-10-01T08:27:32;100089.38;;;14.98;79.35
35507;BME280;36461;52.018;21.036;2022-10-01T08:30:00;100086.03;;;14.96;79.23
35507;BME280;36461;52.018;21.036;2022-10-01T08:32:26;100091.61;;;14.97;78.86
35507;BME280;36461;52.018;21.036;2022-10-01T08:34:53;100089.14;;;15.03;78.70
35507;BME280;36461;52.018;21.036;2022-10-01T08:37:23;100080.30;;;15.05;78.68
35507;BME280;36461;52.018;21.036;2022-10-01T08:39:51;100078.09;;;15.14;78.48
35507;BME280;36461;52.018;21.036;2022-10-01T08:42:23;100075.58;;;15.19;78.54
35507;BME280;36461;52.018;21.036;2022-10-01T08:45:05;100076.41;;;15.20;78.23
35507;BME280;36461;52.018;21.036;2022-10-01T08:47:41;100075.20;;;15.18;77.96
35507;BME280;36461;52.018;21.036;2022-10-01T08:50:23;100070.83;;;15.19;77.72
35507;BME280;36461;52.018;21.036;2022-10-01T08:52:50;100056.28;;;15.29;77.62
35507;BME280;36461;52.018;21.036;2022-10-01T08:55:19;100061.27;;;15.34;77.25
35507;BME280;36461;52.018;21.036;2022-10-01T08:57:48;100065.19;;;15.34;76.75
35507;BME280;36461;52.018;21.036;2022-10-01T09:00:23;100067.42;;;15.33;76.81
35507;BME280;36461;52.018;21.036;2022-10-01T09:02:50;100061.89;;;15.30;76.75
35507;BME280;36461;52.018;21.036;2022-10-01T09:05:19;100070.28;;;15.28;76.78
35507;BME280;36461;52.018;21.036;2022-10-01T09:11:03;100064.13;;;15.06;76.57
35507;BME280;36461;52.018;21.036;2022-10-01T09:21:49;100056.67;;;15.07;76.75
35507;BME280;36461;52.018;21.036;2022-10-01T09:24:23;100043.03;;;15.09;76.74
35507;BME280;36461;52.018;21.036;2022-10-01T09:26:57;100044.32;;;15.02;76.12
35507;BME280;36461;52.018;21.036;2022-10-01T09:29:26;100046.86;;;14.87;76.01
35507;BME280;36461;52.018;21.036;2022-10-01T09:31:55;100036.17;;;14.76;76.00
35507;BME280;36461;52.018;21.036;2022-10-01T09:34:26;100036.05;;;14.62;75.72
35507;BME280;36461;52.018;21.036;2022-10-01T09:37:06;100037.73;;;14.47;76.01
35507;BME280;36461;52.018;21.036;2022-10-01T09:42:23;100026.87;;;14.54;76.66
35507;BME280;36461;52.018;21.036;2022-10-01T09:44:51;100019.30;;;14.66;76.56
35507;BME280;36461;52.018;21.036;2022-10-01T09:47:20;100018.83;;;14.82;76.64
35507;BME280;36461;52.018;21.036;2022-10-01T09:49:48;100022.44;;;14.96;76.38
35507;BME280;36461;52.018;21.036;2022-10-01T09:52:19;100020.80;;;15.02;76.28
35507;BME280;36461;52.018;21.036;2022-10-01T09:57:37;100028.16;;;15.02;75.98
35507;BME280;36461;52.018;21.036;2022-10-01T10:00:17;100023.63;;;14.90;75.77
35507;BME280;36461;52.018;21.036;2022-10-01T10:02:46;100022.70;;;14.91;76.06
35507;BME280;36461;52.018;21.036;2022-10-01T10:05:22;100021.62;;;15.02;75.93
35507;BME280;36461;52.018;21.036;2022-10-01T10:10:24;100023.00;;;15.17;75.53
35507;BME280;36461;52.018;21.036;2022-10-01T10:12:58;100018.25;;;15.16;75.13
35507;BME280;36461;52.018;21.036;2022-10-01T10:15:22;100017.48;;;15.14;75.21
35507;BME280;36461;52.018;21.036;2022-10-01T10:17:51;100024.58;;;15.12;75.39
35507;BME280;36461;52.018;21.036;2022-10-01T10:20:29;100018.69;;;15.16;75.18
35507;BME280;36461;52.018;21.036;2022-10-01T10:23:16;100015.73;;;15.22;75.11
35507;BME280;36461;52.018;21.036;2022-10-01T10:25:54;100005.19;;;15.23;74.66
35507;BME280;36461;52.018;21.036;2022-10-01T10:28:25;100002.87;;;15.33;74.77
35507;BME280;36461;52.018;21.036;2022-10-01T10:30:53;100001.61;;;15.55;74.92
35507;BME280;36461;52.018;21.036;2022-10-01T10:33:22;99991.41;;;15.81;75.03
35507;BME280;36461;52.018;21.036;2022-10-01T10:35:58;99988.11;;;16.06;74.79
35507;BME280;36461;52.018;21.036;2022-10-01T10:38:25;99976.14;;;16.16;74.15
35507;BME280;36461;52.018;21.036;2022-10-01T10:40:55;99972.00;;;16.34;73.13
35507;BME280;36461;52.018;21.036;2022-10-01T10:43:23;99965.45;;;16.34;72.43
35507;BME280;36461;52.018;21.036;2022-10-01T10:45:52;99959.55;;;16.30;71.90
35507;BME280;36461;52.018;21.036;2022-10-01T10:48:23;99958.30;;;16.16;71.64
35507;BME280;36461;52.018;21.036;2022-10-01T10:50:57;99958.47;;;16.13;71.87
35507;BME280;36461;52.018;21.036;2022-10-01T10:53:26;99950.80;;;16.24;72.28
35507;BME280;36461;52.018;21.036;2022-10-01T10:56:03;99942.61;;;16.43;72.00
35507;BME280;36461;52.018;21.036;2022-10-01T10:58:32;99941.81;;;16.55;71.36
35507;BME280;36461;52.018;21.036;2022-10-01T11:01:00;99927.02;;;16.61;72.12
35507;BME280;36461;52.018;21.036;2022-10-01T11:03:34;99929.42;;;16.65;71.27
35507;BME280;36461;52.018;21.036;2022-10-01T11:06:08;99929.84;;;16.58;71.28
35507;BME280;36461;52.018;21.036;2022-10-01T11:08:36;99924.77;;;16.63;70.96
35507;BME280;36461;52.018;21.036;2022-10-01T11:22:46;99887.23;;;16.89;69.98
35507;BME280;36461;52.018;21.036;2022-10-01T11:39:00;99873.69;;;16.75;68.44
35507;BME280;36461;52.018;21.036;2022-10-01T11:41:34;99871.06;;;16.75;67.59
35507;BME280;36461;52.018;21.036;2022-10-01T11:44:07;99866.52;;;16.72;67.66
35507;BME280;36461;52.018;21.036;2022-10-01T11:46:46;99853.09;;;16.76;67.31
35507;BME280;36461;52.018;21.036;2022-10-01T11:52:17;99846.22;;;16.68;67.02
35507;BME280;36461;52.018;21.036;2022-10-01T11:57:47;99834.80;;;16.69;66.77
35507;BME280;36461;52.018;21.036;2022-10-01T12:00:33;99829.41;;;16.58;66.44
35507;BME280;36461;52.018;21.036;2022-10-01T12:03:01;99829.02;;;16.44;66.48
35507;BME280;36461;52.018;21.036;2022-10-01T12:05:30;99826.25;;;16.33;66.54
35507;BME280;36461;52.018;21.036;2022-10-01T12:08:31;99825.54;;;16.23;66.29
35507;BME280;36461;52.018;21.036;2022-10-01T12:10:53;99817.59;;;16.05;66.54
35507;BME280;36461;52.018;21.036;2022-10-01T12:13:33;99814.97;;;15.98;67.22
35507;BME280;36461;52.018;21.036;2022-10-01T12:16:45;99810.87;;;15.93;67.22
35507;BME280;36461;52.018;21.036;2022-10-01T12:21:37;99804.91;;;15.91;67.40
35507;BME280;36461;52.018;21.036;2022-10-01T12:24:09;99800.95;;;15.99;67.44
35507;BME280;36461;52.018;21.036;2022-10-01T12:32:11;99799.71;;;16.04;67.89
35507;BME280;36461;52.018;21.036;2022-10-01T12:37:33;99794.22;;;16.42;67.70
35507;BME280;36461;52.018;21.036;2022-10-01T12:43:02;99788.96;;;16.49;66.70
35507;BME280;36461;52.018;21.036;2022-10-01T12:45:53;99783.68;;;16.16;66.39
35507;BME280;36461;52.018;21.036;2022-10-01T12:54:36;99769.86;;;15.80;67.07
35507;BME280;36461;52.018;21.036;2022-10-01T12:57:19;99769.41;;;15.66;67.06
35507;BME280;36461;52.018;21.036;2022-10-01T12:59:57;99772.05;;;15.58;68.16
35507;BME280;36461;52.018;21.036;2022-10-01T13:10:42;99745.47;;;15.86;68.99
35507;BME280;36461;52.018;21.036;2022-10-01T13:13:28;99744.45;;;16.02;68.83
35507;BME280;36461;52.018;21.036;2022-10-01T13:16:00;99739.55;;;16.10;69.29
35507;BME280;36461;52.018;21.036;2022-10-01T13:18:38;99744.88;;;16.16;68.42
35507;BME280;36461;52.018;21.036;2022-10-01T13:35:01;99735.87;;;16.40;67.86
35507;BME280;36461;52.018;21.036;2022-10-01T13:37:48;99727.26;;;16.38;67.39
35507;BME280;36461;52.018;21.036;2022-10-01T13:42:56;99720.56;;;16.14;67.25
35507;BME280;36461;52.018;21.036;2022-10-01T13:47:51;99724.34;;;15.75;67.70
35507;BME280;36461;52.018;21.036;2022-10-01T13:50:23;99724.75;;;15.69;67.97
35507;BME280;36461;52.018;21.036;2022-10-01T13:52:50;99722.06;;;15.63;67.90
35507;BME280;36461;52.018;21.036;2022-10-01T13:55:24;99716.01;;;15.55;67.78
35507;BME280;36461;52.018;21.036;2022-10-01T13:58:02;99721.97;;;15.57;68.51
35507;BME280;36461;52.018;21.036;2022-10-01T14:00:30;99715.25;;;15.60;68.81
35507;BME280;36461;52.018;21.036;2022-10-01T14:02:59;99713.63;;;15.65;68.99
35507;BME280;36461;52.018;21.036;2022-10-01T14:05:37;99708.67;;;15.68;68.81
35507;BME280;36461;52.018;21.036;2022-10-01T14:08:11;99705.85;;;15.71;68.85
35507;BME280;36461;52.018;21.036;2022-10-01T14:10:43;99700.52;;;15.72;68.88
35507;BME280;36461;52.018;21.036;2022-10-01T14:13:10;99695.87;;;15.70;68.85
35507;BME280;36461;52.018;21.036;2022-10-01T14:15:55;99697.01;;;15.66;69.12
35507;BME280;36461;52.018;21.036;2022-10-01T14:18:29;99689.75;;;15.57;68.90
35507;BME280;36461;52.018;21.036;2022-10-01T14:21:01;99690.61;;;15.50;69.35
35507;BME280;36461;52.018;21.036;2022-10-01T14:23:35;99692.19;;;15.46;69.35
35507;BME280;36461;52.018;21.036;2022-10-01T14:31:28;99688.73;;;15.18;69.34
35507;BME280;36461;52.018;21.036;2022-10-01T14:36:34;99686.50;;;15.04;70.01
35507;BME280;36461;52.018;21.036;2022-10-01T14:39:04;99682.69;;;15.03;70.23
35507;BME280;36461;52.018;21.036;2022-10-01T14:41:45;99672.22;;;14.96;70.35
35507;BME280;36461;52.018;21.036;2022-10-01T14:44:35;99671.31;;;14.89;70.13
35507;BME280;36461;52.018;21.036;2022-10-01T14:46:52;99667.46;;;14.88;70.38
35507;BME280;36461;52.018;21.036;2022-10-01T14:49:19;99662.33;;;14.86;70.72
35507;BME280;36461;52.018;21.036;2022-10-01T14:51:49;99655.35;;;14.87;71.17